sensor_id;sensor_type;location;lat;lon;timestamp;P1;P2;P0
45112;PMS5003;30873;53.908;27.576;2023-03-23T00:04:15;22.9;19;11.4
45112;PMS5003;30873;53.908;27.576;2023-03-23T00:08:56;24.1;20.7;12.5
45112;PMS5003;30873;53.908;27.576;2023-03-23T00:14:24;24.6;22;13.6
45112;PMS5003;30873;53.908;27.576;2023-03-23T00:19:12;27.6;22.8;14.2
45112;PMS5003;30873;53.908;27.576;2023-03-23T00:23:32;26.6;23.7;14.9
45112;PMS5003;30873;53.908;27.576;2023-03-23T00:29:15;27.6;23.3;15.2
45112;PMS5003;30873;53.908;27.576;2023-03-23T00:33:59;30.1;25.1;16.1
45112;PMS5003;30873;53.908;27.576;2023-03-23T00:39:27;26.3;23.8;14.5
45112;PMS5003;30873;53.908;27.576;2023-03-23T00:44:14;26.7;22.4;14.6
45112;PMS5003;30873;53.908;27.576;2023-03-23T00:48:52;26.9;23.4;14.3
45112;PMS5003;30873;53.908;27.576;2023-03-23T00:54:14;29.3;24.1;14.2
45112;PMS5003;30873;53.908;27.576;2023-03-23T00:58:58;26.4;23.7;14.6
45112;PMS5003;30873;53.908;27.576;2023-03-23T01:04:13;26.6;22.6;14.4
45112;PMS5003;30873;53.908;27.576;2023-03-23T01:09:15;25.9;22.2;13.7
45112;PMS5003;30873;53.908;27.576;2023-03-23T01:13:33;26.1;21.5;13.7
45112;PMS5003;30873;53.908;27.576;2023-03-23T01:19:14;25.8;21.8;13.2
45112;PMS5003;30873;53.908;27.576;2023-03-23T01:23:47;25.1;21;12.8
45112;PMS5003;30873;53.908;27.576;2023-03-23T01:29:28;28.2;23.2;13.8
45112;PMS5003;30873;53.908;27.576;2023-03-23T01:34:16;25.3;21.7;13.6
45112;PMS5003;30873;53.908;27.576;2023-03-23T01:38:43;28.7;23.6;14.3
45112;PMS5003;30873;53.908;27.576;2023-03-23T01:49:00;30.1;23.6;14.5
45112;PMS5003;30873;53.908;27.576;2023-03-23T01:54:26;30.8;27.2;14.8
45112;PMS5003;30873;53.908;27.576;2023-03-23T01:59:14;29;24.8;15.7
45112;PMS5003;30873;53.908;27.576;2023-03-23T02:03:32;30;25.3;15.2
45112;PMS5003;30873;53.908;27.576;2023-03-23T02:09:14;27.9;23.8;14.4
45112;PMS5003;30873;53.908;27.576;2023-03-23T02:14:10;29.3;25;15.4
45112;PMS5003;30873;53.908;27.576;2023-03-23T02:19:35;29.9;25.1;14.3
45112;PMS5003;30873;53.908;27.576;2023-03-23T02:24:26;30.7;25.8;15.8
45112;PMS5003;30873;53.908;27.576;2023-03-23T02:28:51;31.6;26.4;14.7
45112;PMS5003;30873;53.908;27.576;2023-03-23T02:34:03;31.3;26.2;15.7
45112;PMS5003;30873;53.908;27.576;2023-03-23T02:38:44;32.1;25.4;15.3
45112;PMS5003;30873;53.908;27.576;2023-03-23T02:44:28;32.6;26.3;15.1
45112;PMS5003;30873;53.908;27.576;2023-03-23T02:49:16;29.8;26.2;15.4
45112;PMS5003;30873;53.908;27.576;2023-03-23T02:53:44;30.1;26.1;15.1
45112;PMS5003;30873;53.908;27.576;2023-03-23T02:59:16;30.7;25.8;16.1
45112;PMS5003;30873;53.908;27.576;2023-03-23T03:03:56;33.1;27.2;15.2
45112;PMS5003;30873;53.908;27.576;2023-03-23T03:09:28;28.7;25.5;15.2
45112;PMS5003;30873;53.908;27.576;2023-03-23T03:13:35;32.7;27.9;16.4
45112;PMS5003;30873;53.908;27.576;2023-03-23T03:18:34;30.9;26.6;16.2
45112;PMS5003;30873;53.908;27.576;2023-03-23T03:24:17;35;29.3;17.4
45112;PMS5003;30873;53.908;27.576;2023-03-23T03:29:08;37.7;31.3;18.1
45112;PMS5003;30873;53.908;27.576;2023-03-23T03:34:25;38.2;32.5;19.7
45112;PMS5003;30873;53.908;27.576;2023-03-23T03:39:07;41.6;34.8;19.8
45112;PMS5003;30873;53.908;27.576;2023-03-23T03:43:50;40.8;35;21.3
45112;PMS5003;30873;53.908;27.576;2023-03-23T03:49:14;38.9;32.3;19.5
45112;PMS5003;30873;53.908;27.576;2023-03-23T03:53:46;35.2;31.4;19.3
45112;PMS5003;30873;53.908;27.576;2023-03-23T03:59:28;37.2;30.9;18.6
45112;PMS5003;30873;53.908;27.576;2023-03-23T04:03:58;37.3;30.2;18.4
45112;PMS5003;30873;53.908;27.576;2023-03-23T04:08:43;39.9;34.8;19.3
45112;PMS5003;30873;53.908;27.576;2023-03-23T04:14:16;39.7;33.7;19.4
45112;PMS5003;30873;53.908;27.576;2023-03-23T04:18:56;40;32.5;19.3
45112;PMS5003;30873;53.908;27.576;2023-03-23T04:24:26;40.4;35.9;22.5
45112;PMS5003;30873;53.908;27.576;2023-03-23T04:28:55;46.4;38.3;23.6
45112;PMS5003;30873;53.908;27.576;2023-03-23T04:33:53;45.2;37.7;23.1
45112;PMS5003;30873;53.908;27.576;2023-03-23T04:39:14;40.5;34.4;21.5
45112;PMS5003;30873;53.908;27.576;2023-03-23T04:43:58;43.3;36.4;21.2
45112;PMS5003;30873;53.908;27.576;2023-03-23T04:49:23;38.9;32.7;19.7
45112;PMS5003;30873;53.908;27.576;2023-03-23T04:53:42;42.6;34.3;19.4
45112;PMS5003;30873;53.908;27.576;2023-03-23T04:58:50;39.5;33.4;21.1
45112;PMS5003;30873;53.908;27.576;2023-03-23T05:04:03;44.4;36.6;21.6
45112;PMS5003;30873;53.908;27.576;2023-03-23T05:08:58;40.2;34.5;21.5
45112;PMS5003;30873;53.908;27.576;2023-03-23T05:14:27;39.8;33.4;20.6
45112;PMS5003;30873;53.908;27.576;2023-03-23T05:18:55;39.1;33.5;20.7
45112;PMS5003;30873;53.908;27.576;2023-03-23T05:23:33;41.2;34;20.7
45112;PMS5003;30873;53.908;27.576;2023-03-23T05:29:17;41.7;34.4;20.4
45112;PMS5003;30873;53.908;27.576;2023-03-23T05:33:57;40;34;21.5
45112;PMS5003;30873;53.908;27.576;2023-03-23T05:39:15;38.3;31.3;18.8
45112;PMS5003;30873;53.908;27.576;2023-03-23T05:43:57;33.8;29.7;19.1
45112;PMS5003;30873;53.908;27.576;2023-03-23T05:48:33;36.4;30.2;18.6
45112;PMS5003;30873;53.908;27.576;2023-03-23T05:54:17;37.2;32.6;19.4
45112;PMS5003;30873;53.908;27.576;2023-03-23T05:58:33;36.8;30.7;18.4
45112;PMS5003;30873;53.908;27.576;2023-03-23T06:04:27;38.6;31.6;18.6
45112;PMS5003;30873;53.908;27.576;2023-03-23T06:09:09;34.8;29.5;17.9
45112;PMS5003;30873;53.908;27.576;2023-03-23T06:13:43;36;30.8;18.4
45112;PMS5003;30873;53.908;27.576;2023-03-23T06:18:35;37.8;32.2;18.3
45112;PMS5003;30873;53.908;27.576;2023-03-23T06:23:59;35.5;30;19.1
45112;PMS5003;30873;53.908;27.576;2023-03-23T06:29:29;36.3;29.8;17.2
45112;PMS5003;30873;53.908;27.576;2023-03-23T06:34:11;33.4;29;18.4
45112;PMS5003;30873;53.908;27.576;2023-03-23T06:38:33;35.3;30.3;18.3
45112;PMS5003;30873;53.908;27.576;2023-03-23T06:44:17;34.3;28.9;17.6
45112;PMS5003;30873;53.908;27.576;2023-03-23T06:48:57;37.9;31.1;18.6
45112;PMS5003;30873;53.908;27.576;2023-03-23T06:54:15;34.5;30.5;18.9
45112;PMS5003;30873;53.908;27.576;2023-03-23T06:58:47;37.1;32.2;19.4
45112;PMS5003;30873;53.908;27.576;2023-03-23T07:03:33;40.1;33.8;20.8
45112;PMS5003;30873;53.908;27.576;2023-03-23T07:09:17;39.5;33.1;20.6
45112;PMS5003;30873;53.908;27.576;2023-03-23T07:14:09;37.1;32.8;19.5
45112;PMS5003;30873;53.908;27.576;2023-03-23T07:19:25;36.6;30;18.8
45112;PMS5003;30873;53.908;27.576;2023-03-23T07:23:57;34.1;29;17.6
45112;PMS5003;30873;53.908;27.576;2023-03-23T07:28:55;34.1;28.8;17.2
45112;PMS5003;30873;53.908;27.576;2023-03-23T07:34:17;36.2;30.2;19
45112;PMS5003;30873;53.908;27.576;2023-03-23T07:38:53;35.7;28.9;18.7
45112;PMS5003;30873;53.908;27.576;2023-03-23T07:44:09;37.1;30;17.9
45112;PMS5003;30873;53.908;27.576;2023-03-23T07:49:07;34.3;28.1;18.1
45112;PMS5003;30873;53.908;27.576;2023-03-23T07:53:33;38.8;32;21
45112;PMS5003;30873;53.908;27.576;2023-03-23T07:59:17;36.4;31.4;19.4
45112;PMS5003;30873;53.908;27.576;2023-03-23T08:03:59;39.3;33.6;21.4
45112;PMS5003;30873;53.908;27.576;2023-03-23T08:09:27;39.1;33.7;20.9
45112;PMS5003;30873;53.908;27.576;2023-03-23T08:13:59;40.1;34;21
45112;PMS5003;30873;53.908;27.576;2023-03-23T08:18:53;35.3;29.4;18.6
45112;PMS5003;30873;53.908;27.576;2023-03-23T08:24:17;37.7;32;20.4
45112;PMS5003;30873;53.908;27.576;2023-03-23T08:29:09;39.5;35.2;22.8
45112;PMS5003;30873;53.908;27.576;2023-03-23T08:34:11;38.1;33.1;20.9
45112;PMS5003;30873;53.908;27.576;2023-03-23T08:38:59;42.9;36.6;23.8
45112;PMS5003;30873;53.908;27.576;2023-03-23T08:44:09;40.2;35.8;23
45112;PMS5003;30873;53.908;27.576;2023-03-23T08:49:15;45.2;37.6;23.7
45112;PMS5003;30873;53.908;27.576;2023-03-23T08:53:57;38.5;31.8;20.6
45112;PMS5003;30873;53.908;27.576;2023-03-23T08:59:25;35.8;31.3;19.5
45112;PMS5003;30873;53.908;27.576;2023-03-23T09:04:05;40.5;35.3;22.2
45112;PMS5003;30873;53.908;27.576;2023-03-23T09:08:43;40;34.5;21
45112;PMS5003;30873;53.908;27.576;2023-03-23T09:14:17;44.8;37;22.9
45112;PMS5003;30873;53.908;27.576;2023-03-23T09:18:43;47.7;40.4;26.2
45112;PMS5003;30873;53.908;27.576;2023-03-23T09:24:27;39.6;34.4;20.7
45112;PMS5003;30873;53.908;27.576;2023-03-23T09:28:59;38;31.8;20.3
45112;PMS5003;30873;53.908;27.576;2023-03-23T09:33:43;40.6;35.1;20.7
45112;PMS5003;30873;53.908;27.576;2023-03-23T09:39:15;42.2;34.1;22.1
45112;PMS5003;30873;53.908;27.576;2023-03-23T09:43:36;41;36;22.9
45112;PMS5003;30873;53.908;27.576;2023-03-23T09:49:28;44.8;37.8;23.8
45112;PMS5003;30873;53.908;27.576;2023-03-23T09:54:00;45.7;37.7;23.2
45112;PMS5003;30873;53.908;27.576;2023-03-23T09:58:53;41;35.3;22.9
45112;PMS5003;30873;53.908;27.576;2023-03-23T10:04:18;44.9;36.1;23.1
45112;PMS5003;30873;53.908;27.576;2023-03-23T10:09:00;40.7;35;21.8
45112;PMS5003;30873;53.908;27.576;2023-03-23T10:14:29;36.5;31.4;20
45112;PMS5003;30873;53.908;27.576;2023-03-23T10:18:43;35.8;31.3;19.5
45112;PMS5003;30873;53.908;27.576;2023-03-23T10:24:14;39.6;33.6;21.5
45112;PMS5003;30873;53.908;27.576;2023-03-23T10:29:17;38.1;33;21.1
45112;PMS5003;30873;53.908;27.576;2023-03-23T10:33:45;37.3;33;20.8
45112;PMS5003;30873;53.908;27.576;2023-03-23T10:39:16;34.9;31.3;20.2
45112;PMS5003;30873;53.908;27.576;2023-03-23T10:44:17;36.2;31.5;19.3
45112;PMS5003;30873;53.908;27.576;2023-03-23T10:48:45;37;30.9;19.1
45112;PMS5003;30873;53.908;27.576;2023-03-23T10:54:25;36.3;32;19.8
45112;PMS5003;30873;53.908;27.576;2023-03-23T10:58:43;39;32.3;19.5
45112;PMS5003;30873;53.908;27.576;2023-03-23T11:04:29;36;31;19.6
45112;PMS5003;30873;53.908;27.576;2023-03-23T11:09:00;34.2;30.6;18.5
45112;PMS5003;30873;53.908;27.576;2023-03-23T11:13:44;34;31.3;19.8
45112;PMS5003;30873;53.908;27.576;2023-03-23T11:38:43;34.5;32;22
45112;PMS5003;30873;53.908;27.576;2023-03-23T11:44:17;28.6;25.4;16.4
45112;PMS5003;30873;53.908;27.576;2023-03-23T11:48:57;30.3;26.9;16.7
45112;PMS5003;30873;53.908;27.576;2023-03-23T11:54:20;27.8;25.5;16.1
45112;PMS5003;30873;53.908;27.576;2023-03-23T11:58:59;28.2;25.3;16
45112;PMS5003;30873;53.908;27.576;2023-03-23T12:04:32;31.4;28.2;18.4
45112;PMS5003;30873;53.908;27.576;2023-03-23T12:09:17;29.9;27.2;16.4
45112;PMS5003;30873;53.908;27.576;2023-03-23T12:13:48;28.7;25.6;16.3
45112;PMS5003;30873;53.908;27.576;2023-03-23T12:19:15;31.1;27;17.3
45112;PMS5003;30873;53.908;27.576;2023-03-23T12:23:58;31.6;27.6;16.7
45112;PMS5003;30873;53.908;27.576;2023-03-23T12:28:59;50.3;41.7;29.8
45112;PMS5003;30873;53.908;27.576;2023-03-23T12:34:30;51.7;42.5;30
45112;PMS5003;30873;53.908;27.576;2023-03-23T12:38:52;45.3;37.8;25.9
45112;PMS5003;30873;53.908;27.576;2023-03-23T12:44:15;34.2;29.1;18.9
45112;PMS5003;30873;53.908;27.576;2023-03-23T12:48:52;32.9;29;17.8
45112;PMS5003;30873;53.908;27.576;2023-03-23T12:53:46;33;28.6;18
45112;PMS5003;30873;53.908;27.576;2023-03-23T12:59:30;32.5;28.5;17.1
45112;PMS5003;30873;53.908;27.576;2023-03-23T13:03:56;31.9;27.9;17.4
45112;PMS5003;30873;53.908;27.576;2023-03-23T13:09:16;34.1;28;17
45112;PMS5003;30873;53.908;27.576;2023-03-23T13:13:59;31.7;26.8;17.4
45112;PMS5003;30873;53.908;27.576;2023-03-23T13:18:44;30.3;26.6;18
45112;PMS5003;30873;53.908;27.576;2023-03-23T13:24:29;33;28.1;18
45112;PMS5003;30873;53.908;27.576;2023-03-23T13:28:48;29.3;25.7;16.6
45112;PMS5003;30873;53.908;27.576;2023-03-23T13:34:16;31;27;17
45112;PMS5003;30873;53.908;27.576;2023-03-23T13:38:47;33;27.6;17.4
45112;PMS5003;30873;53.908;27.576;2023-03-23T13:43:34;34.6;30.1;18.8
45112;PMS5003;30873;53.908;27.576;2023-03-23T13:49:31;34;29;18.6
45112;PMS5003;30873;53.908;27.576;2023-03-23T13:53:42;34.5;29.5;18.1
45112;PMS5003;30873;53.908;27.576;2023-03-23T13:59:04;32;28.7;18.1
45112;PMS5003;30873;53.908;27.576;2023-03-23T14:03:58;33.1;27.9;18.3
45112;PMS5003;30873;53.908;27.576;2023-03-23T14:09:11;30.5;27.1;17.6
45112;PMS5003;30873;53.908;27.576;2023-03-23T14:14:30;31.7;28.5;17.7
45112;PMS5003;30873;53.908;27.576;2023-03-23T14:18:35;33;29.2;18.6
45112;PMS5003;30873;53.908;27.576;2023-03-23T14:24:12;32.4;28.1;17.4
45112;PMS5003;30873;53.908;27.576;2023-03-23T14:28:59;32.3;26.6;18.3
45112;PMS5003;30873;53.908;27.576;2023-03-23T14:33:43;29.1;26;16.8
45112;PMS5003;30873;53.908;27.576;2023-03-23T14:39:31;27.6;23.8;16
45112;PMS5003;30873;53.908;27.576;2023-03-23T14:43:43;29.4;25.8;17.3
45112;PMS5003;30873;53.908;27.576;2023-03-23T14:48:58;30;26;17.9
45112;PMS5003;30873;53.908;27.576;2023-03-23T14:53:47;26.9;24.4;17.2
45112;PMS5003;30873;53.908;27.576;2023-03-23T14:58:33;30.3;27.1;17.6
45112;PMS5003;30873;53.908;27.576;2023-03-23T15:04:29;29.8;26.8;17.3
45112;PMS5003;30873;53.908;27.576;2023-03-23T15:08:33;29.6;26.6;17.9
45112;PMS5003;30873;53.908;27.576;2023-03-23T15:14:15;31.9;27.9;17.8
45112;PMS5003;30873;53.908;27.576;2023-03-23T15:18:34;32.8;28.9;19.5
45112;PMS5003;30873;53.908;27.576;2023-03-23T15:23:33;30.8;27.7;17.3
45112;PMS5003;30873;53.908;27.576;2023-03-23T15:29:17;32.4;28.3;19.7
45112;PMS5003;30873;53.908;27.576;2023-03-23T15:33:43;30.7;27.2;18
45112;PMS5003;30873;53.908;27.576;2023-03-23T15:39:15;30;27.1;18.3
45112;PMS5003;30873;53.908;27.576;2023-03-23T15:44:08;30.9;27.9;18.8
45112;PMS5003;30873;53.908;27.576;2023-03-23T15:48:47;32.2;29.3;18.4
45112;PMS5003;30873;53.908;27.576;2023-03-23T15:54:31;31.3;28.6;18.4
45112;PMS5003;30873;53.908;27.576;2023-03-23T15:58:59;35;30.6;20
45112;PMS5003;30873;53.908;27.576;2023-03-23T16:04:16;35.3;31.5;20
45112;PMS5003;30873;53.908;27.576;2023-03-23T16:09:31;35.7;31.3;20.2
45112;PMS5003;30873;53.908;27.576;2023-03-23T16:13:43;33.6;29.1;18.9
45112;PMS5003;30873;53.908;27.576;2023-03-23T16:19:33;33.5;29.5;19.8
45112;PMS5003;30873;53.908;27.576;2023-03-23T16:23:43;33.5;30.4;18.9
45112;PMS5003;30873;53.908;27.576;2023-03-23T16:29:33;29.2;26.1;17.5
45112;PMS5003;30873;53.908;27.576;2023-03-23T16:34:11;33.1;28.9;19.2
45112;PMS5003;30873;53.908;27.576;2023-03-23T16:39:31;31.2;28.3;19
45112;PMS5003;30873;53.908;27.576;2023-03-23T16:44:03;32.9;29.2;19
45112;PMS5003;30873;53.908;27.576;2023-03-23T16:49:05;30.4;27.7;18.7
45112;PMS5003;30873;53.908;27.576;2023-03-23T16:54:31;30.8;27.5;17.5
45112;PMS5003;30873;53.908;27.576;2023-03-23T16:59:13;29.4;26;17.7
45112;PMS5003;30873;53.908;27.576;2023-03-23T17:04:15;29;26.1;17.5
45112;PMS5003;30873;53.908;27.576;2023-03-23T17:09:03;29.3;26;17.6
45112;PMS5003;30873;53.908;27.576;2023-03-23T17:13:33;28.4;25;16.3
45112;PMS5003;30873;53.908;27.576;2023-03-23T17:19:25;29.6;26.9;17.6
45112;PMS5003;30873;53.908;27.576;2023-03-23T17:24:11;28.9;25.6;16.8
45112;PMS5003;30873;53.908;27.576;2023-03-23T17:29:11;27.3;24.2;16.4
45112;PMS5003;30873;53.908;27.576;2023-03-23T17:33:59;28.4;23.8;16
45112;PMS5003;30873;53.908;27.576;2023-03-23T17:38:33;29.4;25.3;17
45112;PMS5003;30873;53.908;27.576;2023-03-23T17:44:29;29.1;25.7;16.6
45112;PMS5003;30873;53.908;27.576;2023-03-23T17:49:11;27.5;24.5;16.2
45112;PMS5003;30873;53.908;27.576;2023-03-23T17:54:27;25.9;23.1;15.8
45112;PMS5003;30873;53.908;27.576;2023-03-23T17:59:01;26.1;24.1;15.7
45112;PMS5003;30873;53.908;27.576;2023-03-23T18:03:45;27.9;24.4;16.2
45112;PMS5003;30873;53.908;27.576;2023-03-23T18:09:13;26.7;24;15.7
45112;PMS5003;30873;53.908;27.576;2023-03-23T18:14:31;26.8;23.4;15.1
45112;PMS5003;30873;53.908;27.576;2023-03-23T18:19:13;27;23.3;15
45112;PMS5003;30873;53.908;27.576;2023-03-23T18:24:13;25.1;22.7;15.1
45112;PMS5003;30873;53.908;27.576;2023-03-23T18:29:15;24.9;21.9;14.9
45112;PMS5003;30873;53.908;27.576;2023-03-23T18:34:27;27.5;24.8;15.1
45112;PMS5003;30873;53.908;27.576;2023-03-23T18:38:59;28.1;24.1;15.1
45112;PMS5003;30873;53.908;27.576;2023-03-23T18:44:31;26.4;22.8;15.4
45112;PMS5003;30873;53.908;27.576;2023-03-23T18:49:03;26.7;23.6;15.2
45112;PMS5003;30873;53.908;27.576;2023-03-23T18:53:33;25.2;22.8;14.2
45112;PMS5003;30873;53.908;27.576;2023-03-23T18:59:17;25;22.9;14.2
45112;PMS5003;30873;53.908;27.576;2023-03-23T19:04:11;24.7;22.1;14.1
45112;PMS5003;30873;53.908;27.576;2023-03-23T19:09:29;23.5;21.4;13.3
45112;PMS5003;30873;53.908;27.576;2023-03-23T19:14:01;23.6;21.2;14.5
45112;PMS5003;30873;53.908;27.576;2023-03-23T19:19:02;23.7;21.7;13.7
45112;PMS5003;30873;53.908;27.576;2023-03-23T19:24:27;21.7;19.6;13.3
45112;PMS5003;30873;53.908;27.576;2023-03-23T19:29:12;22.5;19.5;13.5
45112;PMS5003;30873;53.908;27.576;2023-03-23T19:34:29;19.2;17.6;11.5
45112;PMS5003;30873;53.908;27.576;2023-03-23T19:38:33;19.2;16.7;10.8
45112;PMS5003;30873;53.908;27.576;2023-03-23T19:43:33;19;15.6;10.1
45112;PMS5003;30873;53.908;27.576;2023-03-23T19:49:27;18.9;16.9;11.9
45112;PMS5003;30873;53.908;27.576;2023-03-23T19:54:11;20.3;18;11.7
45112;PMS5003;30873;53.908;27.576;2023-03-23T19:59:27;18.2;16.6;11.2
45112;PMS5003;30873;53.908;27.576;2023-03-23T20:04:01;18.4;16.9;10.7
45112;PMS5003;30873;53.908;27.576;2023-03-23T20:08:45;17.1;14.9;10
45112;PMS5003;30873;53.908;27.576;2023-03-23T20:14:29;18.8;16.1;10
45112;PMS5003;30873;53.908;27.576;2023-03-23T20:19:11;19;16.4;11.3
45112;PMS5003;30873;53.908;27.576;2023-03-23T20:24:27;18.8;16.9;11.3
45112;PMS5003;30873;53.908;27.576;2023-03-23T20:29:01;18.4;16.8;11.4
45112;PMS5003;30873;53.908;27.576;2023-03-23T20:33:33;18;16.3;10.3
45112;PMS5003;30873;53.908;27.576;2023-03-23T20:38:43;17.3;15.5;11.2
45112;PMS5003;30873;53.908;27.576;2023-03-23T20:44:11;18.3;16.1;11.1
45112;PMS5003;30873;53.908;27.576;2023-03-23T20:49:27;18;15.5;11.4
45112;PMS5003;30873;53.908;27.576;2023-03-23T20:54:01;17.4;16;10.7
45112;PMS5003;30873;53.908;27.576;2023-03-23T20:58:33;18.9;16.4;11.5
45112;PMS5003;30873;53.908;27.576;2023-03-23T21:03:59;20;18.3;12.3
45112;PMS5003;30873;53.908;27.576;2023-03-23T21:09:09;19.9;17;12
45112;PMS5003;30873;53.908;27.576;2023-03-23T21:14:29;18.1;16.7;11.9
45112;PMS5003;30873;53.908;27.576;2023-03-23T21:18:59;21.1;17.9;12.4
45112;PMS5003;30873;53.908;27.576;2023-03-23T21:23:44;18.8;16.7;11.6
45112;PMS5003;30873;53.908;27.576;2023-03-23T21:29:01;19;16.5;11.4
45112;PMS5003;30873;53.908;27.576;2023-03-23T21:33:59;21.1;18.2;12.7
45112;PMS5003;30873;53.908;27.576;2023-03-23T21:39:29;21.8;19.6;13.3
45112;PMS5003;30873;53.908;27.576;2023-03-23T21:43:49;20.1;17.6;12.1
45112;PMS5003;30873;53.908;27.576;2023-03-23T21:48:34;20.2;18.6;12.7
45112;PMS5003;30873;53.908;27.576;2023-03-23T21:54:15;22.5;20.3;13.7
45112;PMS5003;30873;53.908;27.576;2023-03-23T21:58:36;19.6;18.1;12.1
45112;PMS5003;30873;53.908;27.576;2023-03-23T22:04:29;17;15.9;9.9
45112;PMS5003;30873;53.908;27.576;2023-03-23T22:08:44;15.9;14.9;9.5
45112;PMS5003;30873;53.908;27.576;2023-03-23T22:13:59;12.5;11.4;7.4
45112;PMS5003;30873;53.908;27.576;2023-03-23T22:18:50;10.2;8.9;5.7
45112;PMS5003;30873;53.908;27.576;2023-03-23T22:24:13;8.6;7.2;5.2
45112;PMS5003;30873;53.908;27.576;2023-03-23T22:29:31;8.1;7.1;4.7
45112;PMS5003;30873;53.908;27.576;2023-03-23T22:33:59;6.4;5.8;3.6
45112;PMS5003;30873;53.908;27.576;2023-03-23T22:38:47;5.9;5.3;2.9
45112;PMS5003;30873;53.908;27.576;2023-03-23T22:44:17;7.1;6.1;3.8
45112;PMS5003;30873;53.908;27.576;2023-03-23T22:49:13;5;4.6;2.4
45112;PMS5003;30873;53.908;27.576;2023-03-23T22:54:31;4.8;4.2;2.5
45112;PMS5003;30873;53.908;27.576;2023-03-23T22:58:59;5.2;4.7;2.7
45112;PMS5003;30873;53.908;27.576;2023-03-23T23:03:45;5.3;4.5;2.3
45112;PMS5003;30873;53.908;27.576;2023-03-23T23:08:49;5.1;4.2;2.2
45112;PMS5003;30873;53.908;27.576;2023-03-23T23:14:13;4.8;4;2.2
45112;PMS5003;30873;53.908;27.576;2023-03-23T23:19:31;4.4;3.7;2.2
45112;PMS5003;30873;53.908;27.576;2023-03-23T23:24:01;5.6;4.8;2.8
45112;PMS5003;30873;53.908;27.576;2023-03-23T23:28:44;4.7;4.1;2.2
45112;PMS5003;30873;53.908;27.576;2023-03-23T23:33:43;4.6;3.9;2.4
45112;PMS5003;30873;53.908;27.576;2023-03-23T23:39:11;4.5;4.3;2.3
45112;PMS5003;30873;53.908;27.576;2023-03-23T23:44:29;5.4;4.8;2.4
45112;PMS5003;30873;53.908;27.576;2023-03-23T23:48:45;5.3;4.2;2.4
45112;PMS5003;30873;53.908;27.576;2023-03-23T23:53:49;5;4.4;2.6
45112;PMS5003;30873;53.908;27.576;2023-03-23T23:59:01;5.1;4.4;2.1
